DRW weather

Darwin International Airport
Darwin, Northern Territory, Australia

Public forecast

Using degrees Celsius for public forecast. Weather courtesy of forecast.io.

Current aviation weather report (METAR) for Darwin International Airport

Retrieved 2019/12/12 23:30 UTC (20 minutes ago):

YPDN 122330Z 31010KT 9999 FEW024 33/25 Q1009 NOSIG

Aviation forecast (TAF) for Darwin International Airport

Retrieved 2019/12/12 18:00 UTC (6 hours ago):

TAF YPDN 121723Z 1218/1400 12008KT 9999 SCT025 FM130000 30012KT 9999 -SHRA SCT030 FM131200 34005KT 9999 FEW020 PROB30 TEMPO 1303/1310 VRB25G45KT 1000 TSRA BKN010 SCT020CB